sensor_id;sensor_type;location;lat;lon;timestamp;temperature;humidity
2723;DHT22;1369;53.216;10.396;2023-02-28T00:00:27;-1.30;99.90
2723;DHT22;1369;53.216;10.396;2023-02-28T00:02:52;-1.40;99.90
2723;DHT22;1369;53.216;10.396;2023-02-28T00:05:20;-1.40;99.90
2723;DHT22;1369;53.216;10.396;2023-02-28T00:07:46;-1.40;99.90
2723;DHT22;1369;53.216;10.396;2023-02-28T00:10:15;-1.40;99.90
2723;DHT22;1369;53.216;10.396;2023-02-28T00:12:41;-1.50;99.90
2723;DHT22;1369;53.216;10.396;2023-02-28T00:15:09;-1.50;99.90
2723;DHT22;1369;53.216;10.396;2023-02-28T00:17:36;-1.60;99.90
2723;DHT22;1369;53.216;10.396;2023-02-28T00:20:02;-1.60;99.90
2723;DHT22;1369;53.216;10.396;2023-02-28T00:22:38;-1.60;99.90
2723;DHT22;1369;53.216;10.396;2023-02-28T00:25:05;-1.50;99.90
2723;DHT22;1369;53.216;10.396;2023-02-28T00:27:32;-1.50;99.90
2723;DHT22;1369;53.216;10.396;2023-02-28T00:29:58;-1.60;99.90
2723;DHT22;1369;53.216;10.396;2023-02-28T00:32:24;-1.60;99.90
2723;DHT22;1369;53.216;10.396;2023-02-28T00:34:49;-1.70;99.90
2723;DHT22;1369;53.216;10.396;2023-02-28T00:37:15;-1.60;99.90
2723;DHT22;1369;53.216;10.396;2023-02-28T00:39:40;-1.70;99.90
2723;DHT22;1369;53.216;10.396;2023-02-28T00:42:07;-1.70;99.90
2723;DHT22;1369;53.216;10.396;2023-02-28T00:44:33;-1.70;99.90
2723;DHT22;1369;53.216;10.396;2023-02-28T00:47:00;-1.70;99.90
2723;DHT22;1369;53.216;10.396;2023-02-28T00:49:26;-1.70;99.90
2723;DHT22;1369;53.216;10.396;2023-02-28T00:51:52;-1.80;99.90
2723;DHT22;1369;53.216;10.396;2023-02-28T00:54:18;-1.90;99.90
2723;DHT22;1369;53.216;10.396;2023-02-28T00:56:44;-1.80;99.90
2723;DHT22;1369;53.216;10.396;2023-02-28T00:59:11;-1.80;99.90
2723;DHT22;1369;53.216;10.396;2023-02-28T01:01:37;-1.80;99.90
2723;DHT22;1369;53.216;10.396;2023-02-28T01:04:02;-1.90;99.90
2723;DHT22;1369;53.216;10.396;2023-02-28T01:06:28;-1.90;99.90
2723;DHT22;1369;53.216;10.396;2023-02-28T01:08:53;-2.00;99.90
2723;DHT22;1369;53.216;10.396;2023-02-28T01:11:19;-2.00;99.90
2723;DHT22;1369;53.216;10.396;2023-02-28T01:13:46;-1.90;99.90
2723;DHT22;1369;53.216;10.396;2023-02-28T01:16:12;-1.90;99.90
2723;DHT22;1369;53.216;10.396;2023-02-28T01:18:38;-1.80;99.90
2723;DHT22;1369;53.216;10.396;2023-02-28T01:21:09;-1.80;99.90
2723;DHT22;1369;53.216;10.396;2023-02-28T01:23:35;-1.80;99.90
2723;DHT22;1369;53.216;10.396;2023-02-28T01:26:08;-1.70;99.90
2723;DHT22;1369;53.216;10.396;2023-02-28T01:28:34;-1.80;99.90
2723;DHT22;1369;53.216;10.396;2023-02-28T01:31:01;-1.80;99.90
2723;DHT22;1369;53.216;10.396;2023-02-28T01:33:26;-1.60;99.90
2723;DHT22;1369;53.216;10.396;2023-02-28T01:36:03;-1.60;99.90
2723;DHT22;1369;53.216;10.396;2023-02-28T01:38:29;-1.50;99.90
2723;DHT22;1369;53.216;10.396;2023-02-28T01:40:54;-1.60;99.90
2723;DHT22;1369;53.216;10.396;2023-02-28T01:43:28;-1.50;99.90
2723;DHT22;1369;53.216;10.396;2023-02-28T01:45:56;-1.50;99.90
2723;DHT22;1369;53.216;10.396;2023-02-28T01:48:26;-1.70;99.90
2723;DHT22;1369;53.216;10.396;2023-02-28T01:50:53;-1.80;99.90
2723;DHT22;1369;53.216;10.396;2023-02-28T01:53:26;-1.90;99.90
2723;DHT22;1369;53.216;10.396;2023-02-28T01:55:53;-2.00;99.90
2723;DHT22;1369;53.216;10.396;2023-02-28T01:58:20;-2.10;99.90
2723;DHT22;1369;53.216;10.396;2023-02-28T02:00:46;-2.20;99.90
2723;DHT22;1369;53.216;10.396;2023-02-28T02:03:14;-2.30;99.90
2723;DHT22;1369;53.216;10.396;2023-02-28T02:05:41;-2.30;99.90
2723;DHT22;1369;53.216;10.396;2023-02-28T02:08:10;-2.40;99.90
2723;DHT22;1369;53.216;10.396;2023-02-28T02:19:04;-2.40;99.90
2723;DHT22;1369;53.216;10.396;2023-02-28T02:30:39;-2.50;99.90
2723;DHT22;1369;53.216;10.396;2023-02-28T02:36:18;-2.60;99.90
2723;DHT22;1369;53.216;10.396;2023-02-28T02:38:53;-2.70;99.90
2723;DHT22;1369;53.216;10.396;2023-02-28T02:41:38;-2.70;99.90
2723;DHT22;1369;53.216;10.396;2023-02-28T02:44:11;-2.70;99.90
2723;DHT22;1369;53.216;10.396;2023-02-28T02:46:42;-2.70;99.90
2723;DHT22;1369;53.216;10.396;2023-02-28T02:49:14;-2.70;99.90
2723;DHT22;1369;53.216;10.396;2023-02-28T02:51:44;-2.70;99.90
2723;DHT22;1369;53.216;10.396;2023-02-28T02:54:15;-2.70;99.90
2723;DHT22;1369;53.216;10.396;2023-02-28T02:56:44;-2.80;99.90
2723;DHT22;1369;53.216;10.396;2023-02-28T02:59:13;-2.80;99.90
2723;DHT22;1369;53.216;10.396;2023-02-28T03:01:41;-2.90;99.90
2723;DHT22;1369;53.216;10.396;2023-02-28T03:04:12;-2.80;99.90
2723;DHT22;1369;53.216;10.396;2023-02-28T03:06:38;-2.70;99.90
2723;DHT22;1369;53.216;10.396;2023-02-28T03:09:07;-2.70;99.90
2723;DHT22;1369;53.216;10.396;2023-02-28T03:11:34;-2.60;99.90
2723;DHT22;1369;53.216;10.396;2023-02-28T03:17:08;-2.70;99.90
2723;DHT22;1369;53.216;10.396;2023-02-28T03:20:02;-2.60;99.90
2723;DHT22;1369;53.216;10.396;2023-02-28T03:22:56;-2.60;99.90
2723;DHT22;1369;53.216;10.396;2023-02-28T03:30:47;-2.50;99.90
2723;DHT22;1369;53.216;10.396;2023-02-28T03:33:24;-2.50;99.90
2723;DHT22;1369;53.216;10.396;2023-02-28T03:35:56;-2.50;99.90
2723;DHT22;1369;53.216;10.396;2023-02-28T03:38:28;-2.70;99.90
2723;DHT22;1369;53.216;10.396;2023-02-28T03:41:00;-2.80;99.90
2723;DHT22;1369;53.216;10.396;2023-02-28T03:43:32;-2.90;99.90
2723;DHT22;1369;53.216;10.396;2023-02-28T03:46:02;-2.90;99.90
2723;DHT22;1369;53.216;10.396;2023-02-28T03:48:36;-2.80;99.90
2723;DHT22;1369;53.216;10.396;2023-02-28T03:51:07;-2.90;99.90
2723;DHT22;1369;53.216;10.396;2023-02-28T03:53:45;-3.00;99.90
2723;DHT22;1369;53.216;10.396;2023-02-28T03:56:37;-3.00;99.90
2723;DHT22;1369;53.216;10.396;2023-02-28T03:59:25;-3.10;99.90
2723;DHT22;1369;53.216;10.396;2023-02-28T04:01:52;-3.10;99.90
2723;DHT22;1369;53.216;10.396;2023-02-28T04:04:18;-3.20;99.90
2723;DHT22;1369;53.216;10.396;2023-02-28T04:06:44;-3.20;99.90
2723;DHT22;1369;53.216;10.396;2023-02-28T04:09:12;-3.10;99.90
2723;DHT22;1369;53.216;10.396;2023-02-28T04:11:44;-3.10;99.90
2723;DHT22;1369;53.216;10.396;2023-02-28T04:14:11;-3.10;99.90
2723;DHT22;1369;53.216;10.396;2023-02-28T04:16:39;-3.10;99.90
2723;DHT22;1369;53.216;10.396;2023-02-28T04:19:09;-3.20;99.90
2723;DHT22;1369;53.216;10.396;2023-02-28T04:21:37;-3.20;99.90
2723;DHT22;1369;53.216;10.396;2023-02-28T04:24:04;-3.10;99.90
2723;DHT22;1369;53.216;10.396;2023-02-28T04:26:31;-3.10;99.90
2723;DHT22;1369;53.216;10.396;2023-02-28T04:28:57;-3.20;99.90
2723;DHT22;1369;53.216;10.396;2023-02-28T04:31:23;-3.20;99.90
2723;DHT22;1369;53.216;10.396;2023-02-28T04:33:49;-3.20;99.90
2723;DHT22;1369;53.216;10.396;2023-02-28T04:36:14;-3.20;99.90
2723;DHT22;1369;53.216;10.396;2023-02-28T04:38:43;-3.10;99.90
2723;DHT22;1369;53.216;10.396;2023-02-28T04:41:09;-3.10;99.90
2723;DHT22;1369;53.216;10.396;2023-02-28T04:43:34;-3.20;99.90
2723;DHT22;1369;53.216;10.396;2023-02-28T04:46:02;-3.30;99.90
2723;DHT22;1369;53.216;10.396;2023-02-28T04:48:30;-3.20;99.90
2723;DHT22;1369;53.216;10.396;2023-02-28T04:51:00;-3.20;99.90
2723;DHT22;1369;53.216;10.396;2023-02-28T04:53:27;-3.30;99.90
2723;DHT22;1369;53.216;10.396;2023-02-28T04:55:54;-3.40;99.90
2723;DHT22;1369;53.216;10.396;2023-02-28T04:58:19;-3.60;99.90
2723;DHT22;1369;53.216;10.396;2023-02-28T05:00:48;-3.60;99.90
2723;DHT22;1369;53.216;10.396;2023-02-28T05:03:13;-3.60;99.90
2723;DHT22;1369;53.216;10.396;2023-02-28T05:05:39;-3.60;99.90
2723;DHT22;1369;53.216;10.396;2023-02-28T05:08:05;-3.60;99.90
2723;DHT22;1369;53.216;10.396;2023-02-28T05:10:30;-3.50;99.90
2723;DHT22;1369;53.216;10.396;2023-02-28T05:12:56;-3.50;99.90
2723;DHT22;1369;53.216;10.396;2023-02-28T05:15:21;-3.40;99.90
2723;DHT22;1369;53.216;10.396;2023-02-28T05:17:47;-3.40;99.90
2723;DHT22;1369;53.216;10.396;2023-02-28T05:20:13;-3.50;99.90
2723;DHT22;1369;53.216;10.396;2023-02-28T05:22:39;-3.60;99.90
2723;DHT22;1369;53.216;10.396;2023-02-28T05:25:05;-3.40;99.90
2723;DHT22;1369;53.216;10.396;2023-02-28T05:27:31;-3.30;99.90
2723;DHT22;1369;53.216;10.396;2023-02-28T05:29:57;-3.40;99.90
2723;DHT22;1369;53.216;10.396;2023-02-28T05:32:22;-3.50;99.90
2723;DHT22;1369;53.216;10.396;2023-02-28T05:34:48;-3.60;99.90
2723;DHT22;1369;53.216;10.396;2023-02-28T05:37:15;-3.60;99.90
2723;DHT22;1369;53.216;10.396;2023-02-28T05:39:41;-3.60;99.90
2723;DHT22;1369;53.216;10.396;2023-02-28T05:42:07;-3.70;99.90
2723;DHT22;1369;53.216;10.396;2023-02-28T05:44:33;-3.80;99.90
2723;DHT22;1369;53.216;10.396;2023-02-28T05:46:58;-3.80;99.90
2723;DHT22;1369;53.216;10.396;2023-02-28T05:49:24;-3.80;99.90
2723;DHT22;1369;53.216;10.396;2023-02-28T05:51:49;-3.70;99.90
2723;DHT22;1369;53.216;10.396;2023-02-28T05:54:15;-3.80;99.90
2723;DHT22;1369;53.216;10.396;2023-02-28T05:56:40;-3.80;99.90
2723;DHT22;1369;53.216;10.396;2023-02-28T05:59:09;-3.90;99.90
2723;DHT22;1369;53.216;10.396;2023-02-28T06:01:40;-3.90;99.90
2723;DHT22;1369;53.216;10.396;2023-02-28T06:04:07;-3.90;99.90
2723;DHT22;1369;53.216;10.396;2023-02-28T06:06:33;-3.90;99.90
2723;DHT22;1369;53.216;10.396;2023-02-28T06:09:03;-3.70;99.90
2723;DHT22;1369;53.216;10.396;2023-02-28T06:11:29;-3.80;99.90
2723;DHT22;1369;53.216;10.396;2023-02-28T06:13:56;-3.70;99.90
2723;DHT22;1369;53.216;10.396;2023-02-28T06:16:23;-3.80;99.90
2723;DHT22;1369;53.216;10.396;2023-02-28T06:18:48;-3.80;99.90
2723;DHT22;1369;53.216;10.396;2023-02-28T06:21:14;-3.80;99.90
2723;DHT22;1369;53.216;10.396;2023-02-28T06:23:39;-3.80;99.90
2723;DHT22;1369;53.216;10.396;2023-02-28T06:26:05;-3.80;99.90
2723;DHT22;1369;53.216;10.396;2023-02-28T06:28:31;-3.80;99.90
2723;DHT22;1369;53.216;10.396;2023-02-28T06:30:57;-3.70;99.90
2723;DHT22;1369;53.216;10.396;2023-02-28T06:33:23;-3.70;99.90
2723;DHT22;1369;53.216;10.396;2023-02-28T06:35:52;-3.80;99.90
2723;DHT22;1369;53.216;10.396;2023-02-28T06:38:18;-3.90;99.90
2723;DHT22;1369;53.216;10.396;2023-02-28T06:40:44;-3.80;99.90
2723;DHT22;1369;53.216;10.396;2023-02-28T06:43:10;-3.70;99.90
2723;DHT22;1369;53.216;10.396;2023-02-28T06:45:41;-3.70;99.90
2723;DHT22;1369;53.216;10.396;2023-02-28T06:48:07;-3.70;99.90
2723;DHT22;1369;53.216;10.396;2023-02-28T06:50:32;-3.70;99.90
2723;DHT22;1369;53.216;10.396;2023-02-28T06:52:58;-3.70;99.90
2723;DHT22;1369;53.216;10.396;2023-02-28T06:55:23;-3.70;99.90
2723;DHT22;1369;53.216;10.396;2023-02-28T06:57:49;-3.70;99.90
2723;DHT22;1369;53.216;10.396;2023-02-28T07:00:16;-3.60;99.90
2723;DHT22;1369;53.216;10.396;2023-02-28T07:02:41;-3.70;99.90
2723;DHT22;1369;53.216;10.396;2023-02-28T07:05:07;-3.60;99.90
2723;DHT22;1369;53.216;10.396;2023-02-28T07:07:33;-3.60;99.90
2723;DHT22;1369;53.216;10.396;2023-02-28T07:09:59;-3.60;99.90
2723;DHT22;1369;53.216;10.396;2023-02-28T07:12:25;-3.50;99.90
2723;DHT22;1369;53.216;10.396;2023-02-28T07:14:50;-3.50;99.90
2723;DHT22;1369;53.216;10.396;2023-02-28T07:17:16;-3.50;99.90
2723;DHT22;1369;53.216;10.396;2023-02-28T07:19:41;-3.50;99.90
2723;DHT22;1369;53.216;10.396;2023-02-28T07:22:07;-3.40;99.90
2723;DHT22;1369;53.216;10.396;2023-02-28T07:24:33;-3.40;99.90
2723;DHT22;1369;53.216;10.396;2023-02-28T07:26:58;-3.40;99.90
2723;DHT22;1369;53.216;10.396;2023-02-28T07:29:25;-3.30;99.90
2723;DHT22;1369;53.216;10.396;2023-02-28T07:31:50;-3.20;99.90
2723;DHT22;1369;53.216;10.396;2023-02-28T07:34:18;-3.10;99.90
2723;DHT22;1369;53.216;10.396;2023-02-28T07:36:44;-2.90;99.90
2723;DHT22;1369;53.216;10.396;2023-02-28T07:39:09;-2.70;99.90
2723;DHT22;1369;53.216;10.396;2023-02-28T07:41:35;-2.50;99.90
2723;DHT22;1369;53.216;10.396;2023-02-28T07:44:04;-1.90;99.90
2723;DHT22;1369;53.216;10.396;2023-02-28T07:46:30;-0.90;99.90
2723;DHT22;1369;53.216;10.396;2023-02-28T07:49:00;0.00;99.90
2723;DHT22;1369;53.216;10.396;2023-02-28T07:51:28;0.50;99.90
2723;DHT22;1369;53.216;10.396;2023-02-28T07:53:54;0.80;99.90
2723;DHT22;1369;53.216;10.396;2023-02-28T07:56:19;0.80;99.90
2723;DHT22;1369;53.216;10.396;2023-02-28T07:58:45;1.00;99.90
2723;DHT22;1369;53.216;10.396;2023-02-28T08:01:11;1.00;99.90
2723;DHT22;1369;53.216;10.396;2023-02-28T08:03:37;1.30;99.90
2723;DHT22;1369;53.216;10.396;2023-02-28T08:06:06;1.70;99.90
2723;DHT22;1369;53.216;10.396;2023-02-28T08:08:32;2.30;99.90
2723;DHT22;1369;53.216;10.396;2023-02-28T08:11:01;2.50;99.90
2723;DHT22;1369;53.216;10.396;2023-02-28T08:13:28;2.90;99.90
2723;DHT22;1369;53.216;10.396;2023-02-28T08:15:54;3.30;99.90
2723;DHT22;1369;53.216;10.396;2023-02-28T08:18:20;3.50;99.90
2723;DHT22;1369;53.216;10.396;2023-02-28T08:20:46;3.50;99.90
2723;DHT22;1369;53.216;10.396;2023-02-28T08:23:11;3.30;99.90
2723;DHT22;1369;53.216;10.396;2023-02-28T08:25:37;3.50;99.90
2723;DHT22;1369;53.216;10.396;2023-02-28T08:28:03;3.70;99.90
2723;DHT22;1369;53.216;10.396;2023-02-28T08:30:28;4.00;99.90
2723;DHT22;1369;53.216;10.396;2023-02-28T08:32:54;4.10;99.90
2723;DHT22;1369;53.216;10.396;2023-02-28T08:35:20;4.30;99.90
2723;DHT22;1369;53.216;10.396;2023-02-28T08:37:48;4.50;99.90
2723;DHT22;1369;53.216;10.396;2023-02-28T08:40:14;4.40;99.90
2723;DHT22;1369;53.216;10.396;2023-02-28T08:42:45;4.30;99.90
2723;DHT22;1369;53.216;10.396;2023-02-28T08:45:12;4.20;99.90
2723;DHT22;1369;53.216;10.396;2023-02-28T08:47:38;4.10;99.90
2723;DHT22;1369;53.216;10.396;2023-02-28T08:50:04;4.20;99.90
2723;DHT22;1369;53.216;10.396;2023-02-28T08:52:29;4.30;99.90
2723;DHT22;1369;53.216;10.396;2023-02-28T08:54:55;4.20;99.90
2723;DHT22;1369;53.216;10.396;2023-02-28T08:57:20;4.20;99.90
2723;DHT22;1369;53.216;10.396;2023-02-28T08:59:46;4.20;99.90
2723;DHT22;1369;53.216;10.396;2023-02-28T09:02:13;4.40;99.90
2723;DHT22;1369;53.216;10.396;2023-02-28T09:04:39;4.70;99.90
2723;DHT22;1369;53.216;10.396;2023-02-28T09:07:05;5.30;99.90
2723;DHT22;1369;53.216;10.396;2023-02-28T09:09:30;6.00;99.90
2723;DHT22;1369;53.216;10.396;2023-02-28T09:11:56;6.70;99.90
2723;DHT22;1369;53.216;10.396;2023-02-28T09:14:22;7.20;99.90
2723;DHT22;1369;53.216;10.396;2023-02-28T09:16:47;7.80;99.90
2723;DHT22;1369;53.216;10.396;2023-02-28T09:19:13;8.30;99.90
2723;DHT22;1369;53.216;10.396;2023-02-28T09:21:39;8.80;99.90
2723;DHT22;1369;53.216;10.396;2023-02-28T09:24:05;9.30;99.90
2723;DHT22;1369;53.216;10.396;2023-02-28T09:26:30;9.80;99.90
2723;DHT22;1369;53.216;10.396;2023-02-28T09:28:56;10.00;99.90
2723;DHT22;1369;53.216;10.396;2023-02-28T09:31:26;10.10;99.90
2723;DHT22;1369;53.216;10.396;2023-02-28T09:33:54;10.20;99.90
2723;DHT22;1369;53.216;10.396;2023-02-28T09:36:21;10.10;99.90
2723;DHT22;1369;53.216;10.396;2023-02-28T09:38:46;10.20;99.90
2723;DHT22;1369;53.216;10.396;2023-02-28T09:41:23;10.20;99.90
2723;DHT22;1369;53.216;10.396;2023-02-28T09:43:53;10.00;99.90
2723;DHT22;1369;53.216;10.396;2023-02-28T09:46:37;10.00;99.90
2723;DHT22;1369;53.216;10.396;2023-02-28T09:49:10;10.20;99.90
2723;DHT22;1369;53.216;10.396;2023-02-28T09:54:19;10.10;99.90
2723;DHT22;1369;53.216;10.396;2023-02-28T09:56:56;10.20;99.90
2723;DHT22;1369;53.216;10.396;2023-02-28T09:59:44;10.00;99.90
2723;DHT22;1369;53.216;10.396;2023-02-28T10:05:09;9.70;99.90
2723;DHT22;1369;53.216;10.396;2023-02-28T10:08:03;9.70;99.90
2723;DHT22;1369;53.216;10.396;2023-02-28T10:10:40;9.30;99.90
2723;DHT22;1369;53.216;10.396;2023-02-28T10:13:36;9.20;99.90
2723;DHT22;1369;53.216;10.396;2023-02-28T10:16:14;9.10;99.90
2723;DHT22;1369;53.216;10.396;2023-02-28T10:18:49;9.00;99.90
2723;DHT22;1369;53.216;10.396;2023-02-28T10:21:21;9.10;99.90
2723;DHT22;1369;53.216;10.396;2023-02-28T10:23:48;9.20;99.90
2723;DHT22;1369;53.216;10.396;2023-02-28T10:26:18;9.20;99.90
2723;DHT22;1369;53.216;10.396;2023-02-28T10:28:44;9.20;99.90
2723;DHT22;1369;53.216;10.396;2023-02-28T10:31:17;9.30;99.90
2723;DHT22;1369;53.216;10.396;2023-02-28T10:33:43;9.20;99.90
2723;DHT22;1369;53.216;10.396;2023-02-28T10:36:15;9.00;99.90
2723;DHT22;1369;53.216;10.396;2023-02-28T10:38:42;9.00;99.90
2723;DHT22;1369;53.216;10.396;2023-02-28T10:41:14;8.90;99.90
2723;DHT22;1369;53.216;10.396;2023-02-28T10:43:41;8.70;99.90
2723;DHT22;1369;53.216;10.396;2023-02-28T10:51:04;8.00;99.90
2723;DHT22;1369;53.216;10.396;2023-02-28T10:53:37;7.70;99.90
2723;DHT22;1369;53.216;10.396;2023-02-28T11:01:43;7.70;99.90
2723;DHT22;1369;53.216;10.396;2023-02-28T11:07:21;7.70;99.90
2723;DHT22;1369;53.216;10.396;2023-02-28T11:09:50;7.60;99.90
2723;DHT22;1369;53.216;10.396;2023-02-28T11:12:34;7.50;99.90
2723;DHT22;1369;53.216;10.396;2023-02-28T11:15:21;7.60;99.90
2723;DHT22;1369;53.216;10.396;2023-02-28T11:18:04;7.60;99.90
2723;DHT22;1369;53.216;10.396;2023-02-28T11:20:33;7.70;99.90
2723;DHT22;1369;53.216;10.396;2023-02-28T11:23:01;7.70;99.90
2723;DHT22;1369;53.216;10.396;2023-02-28T11:25:36;7.80;99.90
2723;DHT22;1369;53.216;10.396;2023-02-28T11:28:24;7.80;99.90
2723;DHT22;1369;53.216;10.396;2023-02-28T11:31:02;7.60;99.90
2723;DHT22;1369;53.216;10.396;2023-02-28T11:33:31;7.60;99.90
2723;DHT22;1369;53.216;10.396;2023-02-28T11:36:02;7.60;99.90
2723;DHT22;1369;53.216;10.396;2023-02-28T11:38:29;7.50;99.90
2723;DHT22;1369;53.216;10.396;2023-02-28T11:45:54;7.70;99.90
2723;DHT22;1369;53.216;10.396;2023-02-28T11:48:27;7.90;99.90
2723;DHT22;1369;53.216;10.396;2023-02-28T11:51:21;8.00;99.90
2723;DHT22;1369;53.216;10.396;2023-02-28T11:57:00;7.70;99.90
2723;DHT22;1369;53.216;10.396;2023-02-28T12:10:34;8.00;99.90
2723;DHT22;1369;53.216;10.396;2023-02-28T12:13:16;8.20;99.90
2723;DHT22;1369;53.216;10.396;2023-02-28T12:16:06;8.30;99.90
2723;DHT22;1369;53.216;10.396;2023-02-28T12:26:45;8.40;99.90
2723;DHT22;1369;53.216;10.396;2023-02-28T12:29:24;8.30;99.90
2723;DHT22;1369;53.216;10.396;2023-02-28T12:31:57;8.10;99.90
2723;DHT22;1369;53.216;10.396;2023-02-28T12:34:28;8.30;99.90
2723;DHT22;1369;53.216;10.396;2023-02-28T12:36:59;8.50;99.90
2723;DHT22;1369;53.216;10.396;2023-02-28T12:39:29;8.20;99.90
2723;DHT22;1369;53.216;10.396;2023-02-28T12:42:05;8.30;99.90
2723;DHT22;1369;53.216;10.396;2023-02-28T12:44:46;8.40;99.90
2723;DHT22;1369;53.216;10.396;2023-02-28T12:47:16;8.50;99.90
2723;DHT22;1369;53.216;10.396;2023-02-28T12:49:56;8.70;99.90
2723;DHT22;1369;53.216;10.396;2023-02-28T13:00:42;8.70;99.90
2723;DHT22;1369;53.216;10.396;2023-02-28T13:09:12;9.00;99.90
2723;DHT22;1369;53.216;10.396;2023-02-28T13:11:47;9.20;99.90
2723;DHT22;1369;53.216;10.396;2023-02-28T13:17:18;9.40;99.90
2723;DHT22;1369;53.216;10.396;2023-02-28T13:22:36;9.20;99.90
2723;DHT22;1369;53.216;10.396;2023-02-28T13:27:52;9.00;99.90
2723;DHT22;1369;53.216;10.396;2023-02-28T13:33:35;8.80;99.90
2723;DHT22;1369;53.216;10.396;2023-02-28T13:38:38;8.80;99.90
2723;DHT22;1369;53.216;10.396;2023-02-28T13:46:28;9.00;99.90
2723;DHT22;1369;53.216;10.396;2023-02-28T13:48:54;9.10;99.90
2723;DHT22;1369;53.216;10.396;2023-02-28T13:51:42;9.20;99.90
2723;DHT22;1369;53.216;10.396;2023-02-28T13:57:20;8.90;99.90
2723;DHT22;1369;53.216;10.396;2023-02-28T14:03:10;8.70;99.90
2723;DHT22;1369;53.216;10.396;2023-02-28T14:05:37;8.70;99.90
2723;DHT22;1369;53.216;10.396;2023-02-28T14:08:15;8.80;99.90
2723;DHT22;1369;53.216;10.396;2023-02-28T14:10:45;8.90;99.90
2723;DHT22;1369;53.216;10.396;2023-02-28T14:16:02;8.10;99.90
2723;DHT22;1369;53.216;10.396;2023-02-28T14:18:35;8.30;99.90
2723;DHT22;1369;53.216;10.396;2023-02-28T14:21:20;8.50;99.90
2723;DHT22;1369;53.216;10.396;2023-02-28T14:24:03;8.70;99.90
2723;DHT22;1369;53.216;10.396;2023-02-28T14:32:32;8.80;99.90
2723;DHT22;1369;53.216;10.396;2023-02-28T14:38:05;8.70;99.90
2723;DHT22;1369;53.216;10.396;2023-02-28T14:40:35;8.60;99.90
2723;DHT22;1369;53.216;10.396;2023-02-28T14:43:06;8.60;99.90
2723;DHT22;1369;53.216;10.396;2023-02-28T14:45:34;8.60;99.90
2723;DHT22;1369;53.216;10.396;2023-02-28T14:48:01;8.30;99.90
2723;DHT22;1369;53.216;10.396;2023-02-28T14:50:34;8.10;99.90
2723;DHT22;1369;53.216;10.396;2023-02-28T14:53:00;7.90;99.90
2723;DHT22;1369;53.216;10.396;2023-02-28T14:55:35;7.70;99.90
2723;DHT22;1369;53.216;10.396;2023-02-28T14:58:04;7.60;99.90
2723;DHT22;1369;53.216;10.396;2023-02-28T15:00:36;7.50;99.90
2723;DHT22;1369;53.216;10.396;2023-02-28T15:04:26;7.60;99.90
2723;DHT22;1369;53.216;10.396;2023-02-28T15:06:17;7.70;99.90
2723;DHT22;1369;53.216;10.396;2023-02-28T15:08:44;7.70;99.90
2723;DHT22;1369;53.216;10.396;2023-02-28T15:11:18;7.70;99.90
2723;DHT22;1369;53.216;10.396;2023-02-28T15:13:52;7.70;99.90
2723;DHT22;1369;53.216;10.396;2023-02-28T15:16:23;7.70;99.90
2723;DHT22;1369;53.216;10.396;2023-02-28T15:19:00;7.70;99.90
2723;DHT22;1369;53.216;10.396;2023-02-28T15:21:30;7.50;99.90
2723;DHT22;1369;53.216;10.396;2023-02-28T15:23:59;7.20;99.90
2723;DHT22;1369;53.216;10.396;2023-02-28T15:26:33;7.20;99.90
2723;DHT22;1369;53.216;10.396;2023-02-28T15:29:05;7.30;99.90
2723;DHT22;1369;53.216;10.396;2023-02-28T15:31:40;7.40;99.90
2723;DHT22;1369;53.216;10.396;2023-02-28T15:34:13;7.50;99.90
2723;DHT22;1369;53.216;10.396;2023-02-28T15:36:40;7.40;99.90
2723;DHT22;1369;53.216;10.396;2023-02-28T15:39:24;7.40;99.90
2723;DHT22;1369;53.216;10.396;2023-02-28T15:41:50;7.30;99.90
2723;DHT22;1369;53.216;10.396;2023-02-28T15:44:26;7.10;99.90
2723;DHT22;1369;53.216;10.396;2023-02-28T15:47:04;7.10;99.90
2723;DHT22;1369;53.216;10.396;2023-02-28T15:49:38;7.10;99.90
2723;DHT22;1369;53.216;10.396;2023-02-28T15:52:05;6.80;99.90
2723;DHT22;1369;53.216;10.396;2023-02-28T15:54:33;6.90;99.90
2723;DHT22;1369;53.216;10.396;2023-02-28T15:57:05;6.70;99.90
2723;DHT22;1369;53.216;10.396;2023-02-28T15:59:34;6.60;99.90
2723;DHT22;1369;53.216;10.396;2023-02-28T16:04:58;6.40;99.90
2723;DHT22;1369;53.216;10.396;2023-02-28T16:07:24;6.30;99.90
2723;DHT22;1369;53.216;10.396;2023-02-28T16:09:50;6.20;99.90
2723;DHT22;1369;53.216;10.396;2023-02-28T16:12:15;6.10;99.90
2723;DHT22;1369;53.216;10.396;2023-02-28T16:14:41;6.00;99.90
2723;DHT22;1369;53.216;10.396;2023-02-28T16:17:16;5.90;99.90
2723;DHT22;1369;53.216;10.396;2023-02-28T16:19:44;5.80;99.90
2723;DHT22;1369;53.216;10.396;2023-02-28T16:22:10;5.80;99.90
2723;DHT22;1369;53.216;10.396;2023-02-28T16:24:35;5.70;99.90
2723;DHT22;1369;53.216;10.396;2023-02-28T16:27:02;5.60;99.90
2723;DHT22;1369;53.216;10.396;2023-02-28T16:29:30;5.50;99.90
2723;DHT22;1369;53.216;10.396;2023-02-28T16:31:56;5.30;99.90
2723;DHT22;1369;53.216;10.396;2023-02-28T16:34:22;5.20;99.90
2723;DHT22;1369;53.216;10.396;2023-02-28T16:36:49;5.10;99.90
2723;DHT22;1369;53.216;10.396;2023-02-28T16:39:14;4.90;99.90
2723;DHT22;1369;53.216;10.396;2023-02-28T16:41:44;4.80;99.90
2723;DHT22;1369;53.216;10.396;2023-02-28T16:44:34;4.70;99.90
2723;DHT22;1369;53.216;10.396;2023-02-28T16:47:01;4.50;99.90
2723;DHT22;1369;53.216;10.396;2023-02-28T16:49:30;4.40;99.90
2723;DHT22;1369;53.216;10.396;2023-02-28T16:51:56;4.30;99.90
2723;DHT22;1369;53.216;10.396;2023-02-28T16:54:22;4.10;99.90
2723;DHT22;1369;53.216;10.396;2023-02-28T16:56:48;3.90;99.90
2723;DHT22;1369;53.216;10.396;2023-02-28T16:59:19;3.70;99.90
2723;DHT22;1369;53.216;10.396;2023-02-28T17:01:46;3.60;99.90
2723;DHT22;1369;53.216;10.396;2023-02-28T17:04:12;3.50;99.90
2723;DHT22;1369;53.216;10.396;2023-02-28T17:06:37;3.50;99.90
2723;DHT22;1369;53.216;10.396;2023-02-28T17:09:03;3.40;99.90
2723;DHT22;1369;53.216;10.396;2023-02-28T17:11:28;3.40;99.90
2723;DHT22;1369;53.216;10.396;2023-02-28T17:13:54;3.40;99.90
2723;DHT22;1369;53.216;10.396;2023-02-28T17:16:31;3.30;99.90
2723;DHT22;1369;53.216;10.396;2023-02-28T17:19:00;3.10;99.90
2723;DHT22;1369;53.216;10.396;2023-02-28T17:21:26;3.00;99.90
2723;DHT22;1369;53.216;10.396;2023-02-28T17:23:52;2.90;99.90
2723;DHT22;1369;53.216;10.396;2023-02-28T17:26:19;2.80;99.90
2723;DHT22;1369;53.216;10.396;2023-02-28T17:28:45;2.70;99.90
2723;DHT22;1369;53.216;10.396;2023-02-28T17:31:11;2.50;99.90
2723;DHT22;1369;53.216;10.396;2023-02-28T17:33:37;2.40;99.90
2723;DHT22;1369;53.216;10.396;2023-02-28T17:36:02;2.30;99.90
2723;DHT22;1369;53.216;10.396;2023-02-28T17:38:28;2.20;99.90
2723;DHT22;1369;53.216;10.396;2023-02-28T17:40:54;2.20;99.90
2723;DHT22;1369;53.216;10.396;2023-02-28T17:43:23;2.00;99.90
2723;DHT22;1369;53.216;10.396;2023-02-28T17:45:49;2.00;99.90
2723;DHT22;1369;53.216;10.396;2023-02-28T17:48:14;1.90;99.90
2723;DHT22;1369;53.216;10.396;2023-02-28T17:50:40;1.70;99.90
2723;DHT22;1369;53.216;10.396;2023-02-28T17:53:06;1.70;99.90
2723;DHT22;1369;53.216;10.396;2023-02-28T17:55:32;1.70;99.90
2723;DHT22;1369;53.216;10.396;2023-02-28T17:57:59;1.60;99.90
2723;DHT22;1369;53.216;10.396;2023-02-28T18:00:25;1.50;99.90
2723;DHT22;1369;53.216;10.396;2023-02-28T18:02:51;1.40;99.90
2723;DHT22;1369;53.216;10.396;2023-02-28T18:05:18;1.40;99.90
2723;DHT22;1369;53.216;10.396;2023-02-28T18:07:45;1.40;99.90
2723;DHT22;1369;53.216;10.396;2023-02-28T18:10:16;1.40;99.90
2723;DHT22;1369;53.216;10.396;2023-02-28T18:12:45;1.40;99.90
2723;DHT22;1369;53.216;10.396;2023-02-28T18:15:11;1.40;99.90
2723;DHT22;1369;53.216;10.396;2023-02-28T18:17:36;1.40;99.90